createdAt,value
2019-04-21T00:00:32.700Z,61.56
2019-04-21T00:03:08.848Z,62.06
2019-04-21T00:05:53.243Z,62.47
2019-04-21T00:08:35.361Z,62.90
2019-04-21T00:11:01.425Z,63.59
2019-04-21T00:13:22.600Z,63.53
2019-04-21T00:15:40.660Z,63.81
2019-04-21T00:18:10.426Z,63.75
2019-04-21T00:20:45.896Z,63.40
2019-04-21T00:23:25.366Z,63.26
2019-04-21T00:25:52.895Z,64.39
2019-04-21T00:28:39.328Z,64.45
2019-04-21T00:31:01.902Z,64.09
2019-04-21T00:33:18.439Z,63.36
2019-04-21T00:35:51.097Z,63.32
2019-04-21T00:38:32.687Z,62.92
2019-04-21T00:41:09.298Z,62.66
2019-04-21T00:43:29.455Z,62.25
2019-04-21T00:45:55.539Z,62.05
2019-04-21T00:48:37.876Z,61.83
2019-04-21T00:51:29.073Z,61.82
2019-04-21T00:54:00.966Z,62.65
2019-04-21T00:56:21.854Z,63.16
2019-04-21T00:58:58.171Z,63.74
2019-04-21T01:01:19.896Z,62.44
2019-04-21T01:03:57.718Z,61.97
2019-04-21T01:06:25.050Z,61.90
2019-04-21T01:08:55.445Z,61.68
2019-04-21T01:11:28.115Z,61.07
2019-04-21T01:14:02.403Z,60.86
2019-04-21T01:16:27.255Z,61.45
2019-04-21T01:18:55.019Z,61.47
2019-04-21T01:21:13.586Z,61.58
2019-04-21T01:23:35.787Z,63.36
2019-04-21T01:26:18.011Z,62.07
2019-04-21T01:28:49.498Z,61.85
2019-04-21T01:31:22.913Z,61.96
2019-04-21T01:33:59.194Z,62.07
2019-04-21T01:36:26.090Z,62.40
2019-04-21T01:39:02.146Z,63.28
2019-04-21T01:41:31.475Z,63.87
2019-04-21T01:43:55.584Z,64.11
2019-04-21T01:46:25.755Z,64.18
2019-04-21T01:48:54.144Z,64.26
2019-04-21T01:51:23.548Z,64.39
2019-04-21T01:54:08.840Z,63.47
2019-04-21T01:56:49.775Z,63.51
2019-04-21T01:59:06.036Z,61.67
2019-04-21T02:01:45.819Z,60.81
2019-04-21T02:04:24.008Z,60.44
2019-04-21T02:06:55.431Z,58.57
2019-04-21T02:09:15.493Z,58.35
2019-04-21T02:11:52.896Z,58.04
2019-04-21T02:14:25.539Z,56.71
2019-04-21T02:16:48.262Z,57.58
2019-04-21T02:19:21.563Z,58.23
2019-04-21T02:21:45.130Z,57.31
2019-04-21T02:24:31.200Z,56.58
2019-04-21T02:26:55.676Z,56.06
2019-04-21T02:29:31.151Z,56.41
2019-04-21T02:34:32.317Z,56.91
2019-04-21T02:37:17.206Z,56.09
2019-04-21T02:42:01.844Z,54.99
2019-04-21T02:44:39.368Z,55.78
2019-04-21T02:46:54.603Z,55.41
2019-04-21T02:49:45.283Z,55.39
2019-04-21T02:52:13.486Z,55.85
2019-04-21T02:54:48.314Z,56.49
2019-04-21T02:57:12.705Z,56.74
2019-04-21T02:59:42.453Z,58.54
2019-04-21T03:02:34.887Z,60.80
2019-04-21T03:07:52.123Z,62.57
2019-04-21T03:10:22.270Z,63.33
2019-04-21T03:12:45.718Z,63.45
2019-04-21T03:17:49.847Z,63.18
2019-04-21T03:20:19.442Z,63.31
2019-04-21T03:22:49.067Z,63.60
2019-04-21T03:25:26.964Z,63.92
2019-04-21T03:37:45.256Z,62.73
2019-04-21T03:40:22.154Z,61.91
2019-04-21T03:50:27.872Z,62.38
2019-04-21T03:53:00.783Z,62.71
2019-04-21T03:58:20.606Z,63.23
2019-04-21T04:06:07.980Z,62.56
2019-04-21T04:08:44.806Z,62.75
2019-04-21T04:16:05.753Z,62.94
2019-04-21T04:23:40.210Z,64.98
2019-04-21T04:26:07.399Z,65.32
2019-04-21T04:28:46.009Z,65.32
2019-04-21T04:31:15.351Z,64.52
2019-04-21T04:33:53.415Z,64.84
2019-04-21T04:36:10.826Z,64.39
2019-04-21T04:38:56.385Z,64.76
2019-04-21T04:41:33.443Z,64.66
2019-04-21T04:43:44.539Z,64.85
2019-04-21T04:46:22.314Z,65.09
2019-04-21T04:48:45.254Z,64.37
2019-04-21T04:51:30.652Z,63.80
2019-04-21T04:54:06.271Z,63.20
2019-04-21T04:56:26.120Z,62.05
2019-04-21T05:03:52.393Z,59.81
2019-04-21T05:09:03.504Z,58.67
2019-04-21T05:11:44.096Z,57.84
2019-04-21T05:14:03.051Z,57.83
2019-04-21T05:16:36.747Z,57.76
2019-04-21T05:19:04.103Z,57.14
2019-04-21T05:21:30.276Z,57.99
2019-04-21T05:23:48.517Z,58.43
2019-04-21T05:26:09.977Z,57.60
2019-04-21T05:28:42.303Z,56.94
2019-04-21T05:31:38.784Z,56.31
2019-04-21T05:34:13.321Z,55.37
2019-04-21T05:36:44.786Z,54.15
2019-04-21T05:39:14.732Z,54.71
2019-04-21T05:41:41.019Z,54.31
2019-04-21T05:44:31.180Z,53.63
2019-04-21T05:46:59.365Z,53.42
2019-04-21T05:49:25.278Z,53.61
2019-04-21T05:52:05.454Z,53.74
2019-04-21T05:54:48.300Z,52.66
2019-04-21T05:57:05.823Z,52.85
2019-04-21T05:59:40.011Z,52.63
2019-04-21T06:02:18.831Z,51.92
2019-04-21T06:05:02.636Z,51.77
2019-04-21T06:07:18.963Z,51.27
2019-04-21T06:09:48.904Z,50.85
2019-04-21T06:12:08.427Z,50.61
2019-04-21T06:14:45.019Z,50.49
2019-04-21T06:17:19.796Z,50.29
2019-04-21T06:22:17.810Z,49.72
2019-04-21T06:24:54.726Z,49.48
2019-04-21T06:27:15.093Z,49.63
2019-04-21T06:29:46.630Z,48.76
2019-04-21T06:35:07.289Z,48.67
2019-04-21T06:40:01.912Z,47.37
2019-04-21T06:42:18.417Z,46.76
2019-04-21T06:49:50.788Z,46.04
2019-04-21T06:52:43.519Z,43.16
2019-04-21T06:54:57.190Z,40.96
2019-04-21T06:57:21.816Z,38.21
2019-04-21T06:59:54.371Z,36.91
2019-04-21T07:04:54.792Z,33.89
2019-04-21T07:07:21.773Z,33.31
2019-04-21T07:09:57.526Z,32.08
2019-04-21T07:12:26.290Z,30.45
2019-04-21T07:14:59.022Z,28.66
2019-04-21T07:17:28.198Z,27.11
2019-04-21T07:20:02.151Z,27.11
2019-04-21T07:22:35.375Z,27.61
2019-04-21T07:25:03.337Z,26.30
2019-04-21T07:27:29.179Z,27.04
2019-04-21T07:30:06.261Z,26.12
2019-04-21T07:32:47.869Z,26.93
2019-04-21T07:35:03.678Z,27.37
2019-04-21T07:37:32.920Z,25.64
2019-04-21T07:40:03.803Z,24.56
2019-04-21T07:42:24.362Z,23.56
2019-04-21T07:44:53.459Z,22.49
2019-04-21T07:47:36.318Z,23.35
2019-04-21T07:50:07.513Z,23.63
2019-04-21T07:52:39.579Z,22.36
2019-04-21T07:55:20.026Z,22.19
2019-04-21T07:57:36.754Z,21.70
2019-04-21T08:00:22.666Z,20.92
2019-04-21T08:02:46.086Z,20.53
2019-04-21T08:05:14.631Z,20.22
2019-04-21T08:10:10.507Z,19.99
2019-04-21T08:12:40.777Z,19.67
2019-04-21T08:17:41.432Z,19.50
2019-04-21T08:20:13.917Z,21.29
2019-04-21T08:22:51.745Z,21.16
2019-04-21T08:25:19.355Z,20.61
2019-04-21T08:27:55.534Z,19.21
2019-04-21T08:30:26.224Z,19.04
2019-04-21T08:33:02.476Z,20.46
2019-04-21T08:37:50.861Z,19.61
2019-04-21T08:42:57.764Z,21.68
2019-04-21T08:45:30.774Z,21.42
2019-04-21T08:48:00.439Z,20.22
2019-04-21T08:50:27.947Z,20.11
2019-04-21T08:53:04.016Z,20.16
2019-04-21T08:55:51.028Z,18.12
2019-04-21T08:58:22.656Z,18.05
2019-04-21T09:00:56.362Z,17.25
2019-04-21T09:03:35.463Z,17.29
2019-04-21T09:06:16.942Z,16.88
2019-04-21T09:08:42.259Z,19.18
2019-04-21T09:11:08.180Z,18.18
2019-04-21T09:13:38.400Z,17.13
2019-04-21T09:16:08.483Z,18.05
2019-04-21T09:18:32.589Z,17.81
2019-04-21T09:21:14.772Z,17.24
2019-04-21T09:23:39.142Z,18.00
2019-04-21T09:26:14.426Z,17.07
2019-04-21T09:28:36.975Z,16.34
2019-04-21T09:30:57.784Z,17.81
2019-04-21T09:33:34.551Z,17.84
2019-04-21T09:36:01.206Z,19.63
2019-04-21T09:38:32.867Z,19.83
2019-04-21T09:40:57.879Z,18.92
2019-04-21T09:43:34.288Z,17.15
2019-04-21T09:45:57.213Z,16.75
2019-04-21T09:48:26.678Z,17.22
2019-04-21T09:50:57.436Z,16.75
2019-04-21T09:53:32.991Z,15.37
2019-04-21T09:56:01.035Z,13.75
2019-04-21T09:58:34.752Z,13.55
2019-04-21T10:01:09.812Z,14.50
2019-04-21T10:03:39.705Z,14.75
2019-04-21T10:05:58.737Z,14.07
2019-04-21T10:08:27.495Z,13.83
2019-04-21T10:10:56.972Z,14.20
2019-04-21T10:13:25.791Z,14.21
2019-04-21T10:16:03.090Z,14.16
2019-04-21T10:18:31.828Z,13.78
2019-04-21T10:21:01.232Z,13.06
2019-04-21T10:23:30.038Z,11.98
2019-04-21T10:25:58.802Z,12.47
2019-04-21T10:28:28.765Z,12.05
2019-04-21T10:30:58.564Z,11.40
2019-04-21T10:33:28.266Z,11.74
2019-04-21T10:35:57.203Z,12.17
2019-04-21T10:38:30.400Z,11.57
2019-04-21T10:40:57.130Z,11.42
2019-04-21T10:43:27.369Z,11.39
2019-04-21T10:45:57.072Z,13.02
2019-04-21T10:48:25.821Z,12.88
2019-04-21T10:50:54.911Z,12.08
2019-04-21T10:53:25.247Z,11.25
2019-04-21T10:56:03.140Z,11.65
2019-04-21T10:58:28.855Z,11.87
2019-04-21T11:01:02.226Z,11.50
2019-04-21T11:03:33.228Z,11.31
2019-04-21T11:06:06.588Z,11.45
2019-04-21T11:08:41.506Z,11.19
2019-04-21T11:11:07.865Z,11.22
2019-04-21T11:13:36.987Z,10.99
2019-04-21T11:16:05.753Z,11.03
2019-04-21T11:18:35.769Z,12.27
2019-04-21T11:21:04.974Z,14.05
2019-04-21T11:23:33.677Z,14.63
2019-04-21T11:26:02.380Z,13.62
2019-04-21T11:28:31.257Z,13.18
2019-04-21T11:31:00.577Z,12.14
2019-04-21T11:33:29.581Z,11.36
2019-04-21T11:35:59.362Z,10.89
2019-04-21T11:38:35.520Z,11.43
2019-04-21T11:41:03.562Z,10.51
2019-04-21T11:43:32.909Z,10.50
2019-04-21T11:46:02.567Z,10.14
2019-04-21T11:48:32.545Z,10.35
2019-04-21T11:51:01.415Z,10.00
2019-04-21T11:53:30.753Z,10.51
2019-04-21T11:56:00.784Z,12.54
2019-04-21T11:58:29.932Z,14.05
2019-04-21T12:01:00.352Z,13.96
2019-04-21T12:03:29.489Z,12.53
2019-04-21T12:05:59.435Z,13.19
2019-04-21T12:08:36.467Z,14.72
2019-04-21T12:10:59.725Z,13.50
2019-04-21T12:13:29.922Z,13.95
2019-04-21T12:15:59.087Z,14.56
2019-04-21T12:18:29.722Z,14.93
2019-04-21T12:20:58.180Z,14.71
2019-04-21T12:23:27.033Z,13.44
2019-04-21T12:25:56.996Z,11.99
2019-04-21T12:28:26.068Z,11.83
2019-04-21T12:30:55.936Z,12.56
2019-04-21T12:33:43.636Z,13.24
2019-04-21T12:36:13.840Z,15.14
2019-04-21T12:38:48.862Z,14.68
2019-04-21T12:41:13.075Z,14.22
2019-04-21T12:43:42.583Z,13.59
2019-04-21T12:46:11.947Z,14.23
2019-04-21T12:48:42.090Z,15.14
2019-04-21T12:51:12.278Z,14.35
2019-04-21T12:53:41.663Z,14.19
2019-04-21T12:56:11.806Z,13.81
2019-04-21T12:58:41.559Z,13.47
2019-04-21T13:01:10.490Z,13.20
2019-04-21T13:03:39.766Z,12.44
2019-04-21T13:06:09.754Z,11.69
2019-04-21T13:08:50.959Z,12.17
2019-04-21T13:11:10.180Z,13.31
2019-04-21T13:13:39.987Z,12.75
2019-04-21T13:16:09.605Z,12.06
2019-04-21T13:18:39.569Z,12.45
2019-04-21T13:21:08.300Z,12.71
2019-04-21T13:23:37.076Z,12.90
2019-04-21T13:26:06.689Z,14.92
2019-04-21T13:28:37.573Z,15.61
2019-04-21T13:31:06.630Z,14.49
2019-04-21T13:33:35.336Z,15.76
2019-04-21T13:36:04.939Z,16.07
2019-04-21T13:38:42.514Z,15.08
2019-04-21T13:41:24.110Z,14.50
2019-04-21T13:43:41.304Z,15.72
2019-04-21T13:46:10.313Z,17.13
2019-04-21T13:48:40.348Z,17.96
2019-04-21T13:51:09.241Z,18.75
2019-04-21T13:53:38.004Z,18.86
2019-04-21T13:56:06.948Z,18.37
2019-04-21T13:58:35.656Z,16.19
2019-04-21T14:01:05.635Z,15.28
2019-04-21T14:03:35.470Z,15.76
2019-04-21T14:06:04.589Z,15.64
2019-04-21T14:08:33.594Z,15.25
2019-04-21T14:11:02.435Z,15.12
2019-04-21T14:13:32.262Z,14.73
2019-04-21T14:16:02.135Z,14.62
2019-04-21T14:18:31.013Z,14.43
2019-04-21T14:21:00.885Z,14.29
2019-04-21T14:23:37.692Z,14.95
2019-04-21T14:26:01.455Z,14.94
2019-04-21T14:28:30.388Z,15.00
2019-04-21T14:30:59.044Z,15.81
2019-04-21T14:33:27.925Z,15.70
2019-04-21T14:35:56.896Z,16.44
2019-04-21T14:38:26.809Z,15.92
2019-04-21T14:40:56.571Z,15.87
2019-04-21T14:43:25.971Z,15.95
2019-04-21T14:46:02.964Z,15.35
2019-04-21T14:48:50.802Z,15.27
2019-04-21T14:51:33.111Z,15.38
2019-04-21T14:54:03.727Z,15.50
2019-04-21T14:56:33.449Z,15.56
2019-04-21T14:59:04.142Z,15.07
2019-04-21T15:01:33.734Z,14.59
2019-04-21T15:04:03.861Z,14.59
2019-04-21T15:06:33.708Z,14.50
2019-04-21T15:09:03.080Z,14.67
2019-04-21T15:11:31.965Z,16.15
2019-04-21T15:14:01.936Z,17.25
2019-04-21T15:16:31.172Z,17.20
2019-04-21T15:18:59.934Z,16.84
2019-04-21T15:21:29.136Z,17.02
2019-04-21T15:23:58.223Z,17.15
2019-04-21T15:26:28.332Z,16.64
2019-04-21T15:28:57.162Z,16.84
2019-04-21T15:31:30.683Z,16.73
2019-04-21T15:33:57.206Z,16.73
2019-04-21T15:36:27.259Z,17.08
2019-04-21T15:38:56.387Z,17.35
2019-04-21T15:41:25.061Z,18.03
2019-04-21T15:43:54.377Z,18.46
2019-04-21T15:46:23.068Z,19.36
2019-04-21T15:48:52.935Z,20.72
2019-04-21T15:51:21.993Z,21.77
2019-04-21T15:53:51.985Z,22.44
2019-04-21T15:56:28.880Z,23.27
2019-04-21T15:59:08.487Z,23.42
2019-04-21T16:01:39.006Z,23.71
2019-04-21T16:04:08.127Z,24.17
2019-04-21T16:06:37.822Z,24.44
2019-04-21T16:09:14.213Z,24.64
2019-04-21T16:11:39.850Z,24.98
2019-04-21T16:14:10.159Z,25.56
2019-04-21T16:16:39.311Z,26.41
2019-04-21T16:19:08.266Z,26.98
2019-04-21T16:21:41.019Z,26.98
2019-04-21T16:24:08.792Z,25.73
2019-04-21T16:26:38.403Z,26.04
2019-04-21T16:29:07.456Z,26.24
2019-04-21T16:31:36.415Z,25.77
2019-04-21T16:34:05.189Z,26.10
2019-04-21T16:36:33.921Z,26.51
2019-04-21T16:39:02.556Z,26.55
2019-04-21T16:41:32.073Z,26.62
2019-04-21T16:44:01.007Z,26.79
2019-04-21T16:46:29.706Z,26.86
2019-04-21T16:48:59.910Z,27.35
2019-04-21T16:51:28.753Z,27.59
2019-04-21T16:53:59.862Z,27.82
2019-04-21T16:56:31.110Z,27.87
2019-04-21T16:59:10.527Z,28.12
2019-04-21T17:01:40.676Z,31.42
2019-04-21T17:04:10.772Z,32.89
2019-04-21T17:06:40.817Z,33.63
2019-04-21T17:09:10.666Z,34.79
2019-04-21T17:11:41.941Z,35.19
2019-04-21T17:14:30.060Z,35.43
2019-04-21T17:17:04.056Z,35.98
2019-04-21T17:19:18.029Z,36.39
2019-04-21T17:21:41.664Z,37.84
2019-04-21T17:24:10.614Z,38.11
2019-04-21T17:26:42.531Z,38.16
2019-04-21T17:29:10.446Z,37.14
2019-04-21T17:31:41.416Z,37.74
2019-04-21T17:34:16.159Z,38.15
2019-04-21T17:36:41.150Z,37.33
2019-04-21T17:39:11.163Z,37.47
2019-04-21T17:41:49.526Z,37.27
2019-04-21T17:44:10.698Z,36.11
2019-04-21T17:46:46.549Z,36.11
2019-04-21T17:49:10.857Z,37.51
2019-04-21T17:52:01.141Z,37.32
2019-04-21T17:54:35.756Z,37.27
2019-04-21T17:57:24.548Z,36.80
2019-04-21T18:00:09.748Z,36.52
2019-04-21T18:02:24.711Z,37.04
2019-04-21T18:05:01.036Z,37.24
2019-04-21T18:07:27.560Z,37.34
2019-04-21T18:10:00.873Z,36.05
2019-04-21T18:12:25.017Z,36.81
2019-04-21T18:14:54.143Z,37.88
2019-04-21T18:17:11.995Z,38.02
2019-04-21T18:19:43.630Z,38.77
2019-04-21T18:22:34.256Z,39.40
2019-04-21T18:25:06.678Z,40.03
2019-04-21T18:27:32.420Z,39.78
2019-04-21T18:30:04.471Z,39.90
2019-04-21T18:32:37.565Z,40.03
2019-04-21T18:35:14.119Z,39.77
2019-04-21T18:38:05.738Z,39.32
2019-04-21T18:40:31.890Z,39.47
2019-04-21T18:43:38.907Z,39.52
2019-04-21T18:46:09.395Z,39.59
2019-04-21T18:48:16.229Z,39.86
2019-04-21T18:50:57.525Z,39.82
2019-04-21T18:53:35.263Z,39.39
2019-04-21T18:55:58.285Z,39.73
2019-04-21T18:58:22.677Z,41.03
2019-04-21T19:00:53.069Z,40.49
2019-04-21T19:03:30.674Z,40.16
2019-04-21T19:06:01.062Z,40.29
2019-04-21T19:08:38.836Z,40.37
2019-04-21T19:11:14.858Z,40.18
2019-04-21T19:14:15.398Z,40.25
2019-04-21T19:16:38.191Z,40.24
2019-04-21T19:19:23.706Z,41.42
2019-04-21T19:21:24.495Z,40.67
2019-04-21T19:24:13.539Z,41.13
2019-04-21T19:26:42.469Z,40.36
2019-04-21T19:29:03.627Z,40.43
2019-04-21T19:31:32.267Z,40.58
2019-04-21T19:33:55.416Z,40.21
2019-04-21T19:36:15.221Z,40.22
2019-04-21T19:38:57.417Z,41.14
2019-04-21T19:41:28.050Z,40.93
2019-04-21T19:44:03.596Z,41.00
2019-04-21T19:46:33.356Z,40.78
2019-04-21T19:49:15.204Z,40.38
2019-04-21T19:51:30.999Z,40.13
2019-04-21T19:53:56.342Z,40.32
2019-04-21T19:56:16.667Z,40.53
2019-04-21T19:58:47.420Z,40.35
2019-04-21T20:01:17.261Z,40.51
2019-04-21T20:03:49.857Z,40.46
2019-04-21T20:06:38.030Z,40.89
2019-04-21T20:09:09.665Z,40.83
2019-04-21T20:11:33.559Z,40.46
2019-04-21T20:14:40.532Z,40.71
2019-04-21T20:16:37.515Z,40.51
2019-04-21T20:18:56.659Z,40.91
2019-04-21T20:21:20.772Z,41.11
2019-04-21T20:23:49.546Z,40.95
2019-04-21T20:26:23.130Z,41.30
2019-04-21T20:29:00.054Z,41.68
2019-04-21T20:31:36.731Z,41.37
2019-04-21T20:34:11.265Z,41.87
2019-04-21T20:36:45.797Z,41.22
2019-04-21T20:38:57.927Z,41.81
2019-04-21T20:41:35.520Z,42.68
2019-04-21T20:44:12.056Z,41.99
2019-04-21T20:46:40.910Z,41.13
2019-04-21T20:49:04.627Z,41.12
2019-04-21T20:51:37.585Z,40.65
2019-04-21T20:54:07.380Z,40.29
2019-04-21T20:56:42.013Z,39.91
2019-04-21T20:59:11.935Z,39.47
2019-04-21T21:01:54.948Z,39.37
2019-04-21T21:04:07.672Z,38.59
2019-04-21T21:06:40.968Z,38.29
2019-04-21T21:09:10.332Z,37.86
2019-04-21T21:11:53.497Z,38.17
2019-04-21T21:14:15.995Z,37.86
2019-04-21T21:16:47.611Z,38.24
2019-04-21T21:21:40.473Z,39.36
2019-04-21T21:24:13.433Z,39.34
2019-04-21T21:26:52.368Z,39.76
2019-04-21T21:29:11.612Z,40.00
2019-04-21T21:31:50.739Z,40.09
2019-04-21T21:34:25.989Z,40.38
2019-04-21T21:36:51.138Z,41.33
2019-04-21T21:39:15.712Z,41.25
2019-04-21T21:41:36.807Z,42.26
2019-04-21T21:44:08.776Z,43.35
2019-04-21T21:46:47.035Z,43.07
2019-04-21T21:49:19.053Z,43.15
2019-04-21T21:51:43.514Z,42.93
2019-04-21T21:54:04.772Z,41.90
2019-04-21T21:56:34.322Z,41.64
2019-04-21T21:59:10.569Z,41.72
2019-04-21T22:01:39.874Z,41.93
2019-04-21T22:04:10.947Z,42.44
2019-04-21T22:06:42.020Z,42.91
2019-04-21T22:09:10.322Z,43.13
2019-04-21T22:11:42.207Z,43.51
2019-04-21T22:14:13.271Z,43.29
2019-04-21T22:16:51.751Z,43.44
2019-04-21T22:19:29.620Z,43.99
2019-04-21T22:21:58.075Z,44.70
2019-04-21T22:24:26.924Z,44.74
2019-04-21T22:26:42.979Z,46.66
2019-04-21T22:29:11.902Z,49.28
2019-04-21T22:31:41.578Z,49.09
2019-04-21T22:34:14.065Z,48.04
2019-04-21T22:36:52.063Z,51.12
2019-04-21T22:39:28.504Z,51.15
2019-04-21T22:41:46.677Z,49.15
2019-04-21T22:44:19.370Z,49.29
2019-04-21T22:46:59.964Z,49.55
2019-04-21T22:49:21.450Z,50.64
2019-04-21T22:51:51.971Z,51.72
2019-04-21T22:54:26.936Z,50.07
2019-04-21T22:56:59.277Z,49.66
2019-04-21T22:59:24.123Z,50.26
2019-04-21T23:01:53.683Z,50.77
2019-04-21T23:04:25.424Z,50.81
2019-04-21T23:06:57.953Z,52.10
2019-04-21T23:09:22.961Z,53.05
2019-04-21T23:11:54.721Z,53.55
2019-04-21T23:14:22.025Z,53.90
2019-04-21T23:16:54.233Z,54.66
2019-04-21T23:19:35.610Z,55.18
2019-04-21T23:22:14.138Z,53.67
2019-04-21T23:24:45.691Z,52.73
2019-04-21T23:27:07.936Z,54.29
2019-04-21T23:29:52.744Z,54.13
2019-04-21T23:32:12.379Z,54.20
2019-04-21T23:34:26.868Z,53.58
2019-04-21T23:37:02.328Z,54.41
2019-04-21T23:39:30.097Z,53.22
2019-04-21T23:41:57.293Z,52.93
2019-04-21T23:44:25.978Z,53.06
2019-04-21T23:47:00.780Z,53.21
2019-04-21T23:49:38.387Z,53.59
2019-04-21T23:52:02.467Z,53.89
2019-04-21T23:54:27.243Z,55.37
2019-04-21T23:56:56.085Z,55.47
2019-04-21T23:59:24.926Z,54.84
